createdAt,value
2022-09-11T00:01:16.709Z,9.57
2022-09-11T00:03:44.995Z,7.25
2022-09-11T00:06:14.410Z,11.30
2022-09-11T00:08:42.396Z,9.13
2022-09-11T00:11:17.470Z,11.32
2022-09-11T00:13:50.477Z,8.68
2022-09-11T00:16:26.945Z,10.45
2022-09-11T00:18:55.492Z,8.50
2022-09-11T00:21:22.074Z,9.23
2022-09-11T00:23:51.817Z,9.07
2022-09-11T00:26:19.635Z,9.90
2022-09-11T00:28:46.658Z,8.75
2022-09-11T00:31:16.492Z,11.05
2022-09-11T00:33:43.888Z,8.90
2022-09-11T00:36:16.974Z,9.50
2022-09-11T00:38:43.870Z,7.95
2022-09-11T00:41:14.897Z,10.65
2022-09-11T00:44:13.285Z,9.85
2022-09-11T00:46:47.405Z,8.88
2022-09-11T00:49:58.694Z,12.00
2022-09-11T00:52:34.239Z,8.68
2022-09-11T00:55:14.487Z,9.30
2022-09-11T00:57:58.996Z,9.40
2022-09-11T01:00:25.653Z,10.38
2022-09-11T01:02:54.526Z,9.80
2022-09-11T01:05:25.213Z,10.73
2022-09-11T01:07:54.547Z,11.50
2022-09-11T01:10:36.519Z,10.45
2022-09-11T01:13:17.394Z,10.13
2022-09-11T01:15:58.963Z,9.75
2022-09-11T01:19:00.969Z,9.00
2022-09-11T01:21:54.449Z,10.20
2022-09-11T01:24:39.758Z,9.38
2022-09-11T01:27:25.525Z,10.90
2022-09-11T01:30:01.800Z,12.55
2022-09-11T01:32:37.020Z,9.90
2022-09-11T01:35:12.665Z,9.20
2022-09-11T01:37:53.767Z,8.75
2022-09-11T01:40:28.240Z,11.20
2022-09-11T01:43:03.423Z,9.25
2022-09-11T01:45:37.378Z,10.25
2022-09-11T01:48:07.961Z,12.25
2022-09-11T01:50:39.030Z,10.82
2022-09-11T01:53:15.107Z,10.32
2022-09-11T01:55:55.479Z,11.13
2022-09-11T01:58:30.942Z,11.23
2022-09-11T02:01:09.625Z,10.57
2022-09-11T02:03:48.460Z,9.88
2022-09-11T02:06:31.152Z,11.30
2022-09-11T02:09:03.093Z,10.77
2022-09-11T02:11:34.162Z,10.70
2022-09-11T02:14:38.332Z,11.05
2022-09-11T02:17:25.819Z,10.25
2022-09-11T02:19:54.531Z,10.25
2022-09-11T02:22:21.015Z,11.02
2022-09-11T02:24:47.475Z,12.35
2022-09-11T02:27:19.487Z,14.85
2022-09-11T02:29:46.091Z,12.05
2022-09-11T02:32:12.800Z,11.98
2022-09-11T02:34:42.657Z,10.63
2022-09-11T02:37:40.195Z,12.48
2022-09-11T02:40:31.954Z,10.60
2022-09-11T02:43:23.233Z,15.27
2022-09-11T02:46:07.950Z,15.30
2022-09-11T02:48:35.742Z,11.20
2022-09-11T02:51:34.803Z,12.85
2022-09-11T02:54:32.989Z,19.40
2022-09-11T02:57:13.947Z,13.43
2022-09-11T02:59:51.952Z,13.48
2022-09-11T03:02:18.554Z,14.95
2022-09-11T03:04:45.539Z,13.43
2022-09-11T03:07:12.684Z,14.88
2022-09-11T03:09:39.185Z,11.23
2022-09-11T03:12:06.178Z,13.60
2022-09-11T03:14:32.523Z,12.50
2022-09-11T03:16:59.198Z,19.00
2022-09-11T03:19:25.559Z,12.95
2022-09-11T03:21:52.282Z,15.18
2022-09-11T03:24:18.634Z,13.80
2022-09-11T03:26:45.217Z,20.88
2022-09-11T03:29:12.367Z,11.43
2022-09-11T03:31:39.531Z,14.98
2022-09-11T03:34:06.429Z,12.05
2022-09-11T03:36:34.562Z,14.90
2022-09-11T03:39:01.982Z,17.33
2022-09-11T03:41:28.701Z,13.98
2022-09-11T03:43:55.210Z,11.35
2022-09-11T03:46:21.894Z,13.18
2022-09-11T03:48:48.253Z,15.52
2022-09-11T03:51:15.220Z,15.57
2022-09-11T03:53:42.939Z,24.15
2022-09-11T03:56:10.142Z,21.42
2022-09-11T03:58:37.087Z,22.52
2022-09-11T04:01:12.150Z,17.38
2022-09-11T04:03:39.969Z,17.08
2022-09-11T04:06:07.485Z,19.08
2022-09-11T04:08:36.970Z,14.18
2022-09-11T04:11:06.042Z,18.85
2022-09-11T04:13:37.681Z,14.85
2022-09-11T04:16:11.222Z,12.77
2022-09-11T04:18:39.806Z,14.18
2022-09-11T04:21:12.515Z,17.30
2022-09-11T04:26:16.819Z,17.13
2022-09-11T04:28:43.713Z,15.57
2022-09-11T04:31:10.427Z,19.27
2022-09-11T04:33:37.378Z,17.08
2022-09-11T04:36:08.369Z,20.02
2022-09-11T04:38:34.883Z,13.40
2022-09-11T04:41:03.132Z,13.85
2022-09-11T04:43:38.129Z,19.20
2022-09-11T04:46:07.032Z,18.88
2022-09-11T04:48:33.648Z,15.32
2022-09-11T04:51:06.037Z,17.73
2022-09-11T04:53:33.852Z,18.42
2022-09-11T04:56:06.364Z,18.33
2022-09-11T04:58:33.822Z,18.08
2022-09-11T05:01:00.343Z,14.73
2022-09-11T05:03:29.961Z,14.93
2022-09-11T05:05:56.455Z,12.25
2022-09-11T05:08:26.826Z,13.25
2022-09-11T05:10:53.240Z,13.48
2022-09-11T05:13:19.893Z,12.73
2022-09-11T05:15:47.006Z,19.73
2022-09-11T05:18:13.384Z,11.77
2022-09-11T05:20:40.601Z,16.25
2022-09-11T05:23:07.512Z,14.02
2022-09-11T05:25:33.986Z,14.38
2022-09-11T05:28:00.457Z,14.40
2022-09-11T05:30:28.816Z,15.18
2022-09-11T05:32:55.311Z,17.83
2022-09-11T05:35:27.231Z,11.57
2022-09-11T05:37:55.574Z,17.80
2022-09-11T05:40:21.911Z,11.88
2022-09-11T05:42:50.653Z,15.65
2022-09-11T05:45:16.999Z,14.65
2022-09-11T05:47:43.466Z,13.30
2022-09-11T05:50:10.081Z,16.17
2022-09-11T05:52:36.521Z,12.85
2022-09-11T05:55:02.963Z,14.63
2022-09-11T05:57:29.473Z,12.95
2022-09-11T05:59:55.856Z,15.77
2022-09-11T06:02:22.337Z,15.90
2022-09-11T06:04:48.814Z,17.33
2022-09-11T06:07:15.277Z,13.00
2022-09-11T06:09:41.777Z,14.95
2022-09-11T06:12:11.777Z,16.42
2022-09-11T06:14:38.558Z,15.45
2022-09-11T06:17:06.392Z,18.83
2022-09-11T06:19:32.885Z,17.25
2022-09-11T06:21:59.273Z,22.38
2022-09-11T06:24:25.839Z,13.57
2022-09-11T06:26:52.232Z,13.98
2022-09-11T06:29:19.445Z,22.70
2022-09-11T06:31:47.619Z,16.10
2022-09-11T06:34:14.052Z,17.75
2022-09-11T06:36:40.438Z,21.58
2022-09-11T06:39:06.852Z,12.60
2022-09-11T06:41:33.281Z,16.48
2022-09-11T06:43:59.842Z,15.30
2022-09-11T06:46:26.893Z,14.20
2022-09-11T06:48:53.772Z,16.13
2022-09-11T06:51:21.485Z,13.93
2022-09-11T06:53:48.581Z,10.70
2022-09-11T06:56:17.885Z,13.88
2022-09-11T06:58:45.909Z,14.13
2022-09-11T07:01:12.250Z,12.85
2022-09-11T07:03:44.942Z,14.23
2022-09-11T07:06:12.705Z,16.95
2022-09-11T07:08:39.458Z,16.05
2022-09-11T07:11:08.072Z,15.13
2022-09-11T07:13:37.493Z,11.00
2022-09-11T07:16:07.736Z,13.07
2022-09-11T07:18:42.485Z,13.32
2022-09-11T07:21:16.810Z,13.57
2022-09-11T07:23:48.098Z,15.65
2022-09-11T07:26:17.555Z,13.80
2022-09-11T07:28:44.260Z,15.40
2022-09-11T07:31:18.597Z,15.38
2022-09-11T07:33:48.754Z,14.10
2022-09-11T07:36:17.601Z,12.55
2022-09-11T07:38:46.060Z,20.48
2022-09-11T07:41:14.378Z,13.43
2022-09-11T07:43:50.695Z,13.10
2022-09-11T07:46:17.594Z,15.10
2022-09-11T07:48:44.778Z,16.85
2022-09-11T07:51:13.714Z,15.32
2022-09-11T07:53:45.368Z,11.63
2022-09-11T07:56:18.413Z,14.50
2022-09-11T07:58:45.398Z,14.07
2022-09-11T08:01:17.201Z,19.50
2022-09-11T08:03:44.708Z,15.30
2022-09-11T08:06:18.919Z,15.63
2022-09-11T08:08:52.477Z,18.95
2022-09-11T08:11:19.046Z,18.33
2022-09-11T08:13:53.547Z,26.02
2022-09-11T08:16:22.200Z,15.23
2022-09-11T08:18:49.044Z,13.60
2022-09-11T08:21:16.274Z,14.13
2022-09-11T08:23:44.264Z,17.10
2022-09-11T08:26:11.997Z,15.23
2022-09-11T08:28:39.990Z,19.15
2022-09-11T08:31:07.016Z,18.80
2022-09-11T08:33:33.765Z,14.77
2022-09-11T08:36:02.434Z,12.32
2022-09-11T08:38:29.620Z,12.30
2022-09-11T08:41:09.282Z,22.17
2022-09-11T08:43:38.972Z,15.57
2022-09-11T08:46:09.440Z,11.13
2022-09-11T08:48:49.718Z,16.42
2022-09-11T08:51:18.242Z,16.00
2022-09-11T08:53:45.598Z,13.27
2022-09-11T08:56:18.281Z,14.60
2022-09-11T09:01:57.856Z,14.35
2022-09-11T09:04:46.382Z,18.98
2022-09-11T09:07:21.342Z,12.85
2022-09-11T09:09:53.655Z,10.93
2022-09-11T09:12:32.459Z,17.95
2022-09-11T09:15:20.041Z,15.20
2022-09-11T09:18:03.611Z,10.77
2022-09-11T09:20:34.212Z,15.18
2022-09-11T09:23:06.703Z,16.08
2022-09-11T09:25:39.918Z,13.18
2022-09-11T09:28:39.301Z,11.90
2022-09-11T09:31:10.321Z,11.88
2022-09-11T09:33:58.431Z,15.45
2022-09-11T09:36:33.043Z,10.98
2022-09-11T09:38:59.876Z,15.38
2022-09-11T09:41:52.538Z,10.60
2022-09-11T09:44:43.848Z,12.07
2022-09-11T09:47:14.265Z,14.10
2022-09-11T09:49:41.702Z,14.70
2022-09-11T09:52:26.490Z,12.73
2022-09-11T09:55:13.274Z,15.30
2022-09-11T09:57:40.067Z,15.48
2022-09-11T10:00:15.846Z,20.17
2022-09-11T10:02:56.424Z,12.23
2022-09-11T10:05:41.406Z,14.98
2022-09-11T10:08:31.599Z,16.42
2022-09-11T10:11:01.328Z,17.50
2022-09-11T10:13:33.394Z,17.40
2022-09-11T10:16:03.726Z,16.75
2022-09-11T10:18:30.469Z,16.77
2022-09-11T10:21:12.076Z,12.70
2022-09-11T10:23:46.572Z,17.13
2022-09-11T10:26:24.710Z,14.65
2022-09-11T10:28:56.378Z,18.85
2022-09-11T10:31:22.970Z,16.47
2022-09-11T10:33:57.703Z,13.15
2022-09-11T10:36:27.191Z,13.45
2022-09-11T10:38:55.837Z,14.30
2022-09-11T10:41:25.042Z,12.48
2022-09-11T10:44:03.142Z,13.18
2022-09-11T10:46:40.448Z,14.48
2022-09-11T10:49:21.023Z,11.23
2022-09-11T10:52:08.856Z,13.25
2022-09-11T10:54:53.201Z,14.05
2022-09-11T10:57:31.467Z,13.85
2022-09-11T11:00:09.223Z,13.63
2022-09-11T11:02:43.086Z,14.27
2022-09-11T11:05:27.075Z,17.42
2022-09-11T11:07:56.382Z,12.27
2022-09-11T11:10:37.830Z,13.70
2022-09-11T11:13:39.414Z,10.55
2022-09-11T11:16:27.553Z,17.60
2022-09-11T11:19:14.952Z,13.10
2022-09-11T11:22:12.274Z,11.57
2022-09-11T11:24:53.631Z,11.25
2022-09-11T11:27:49.358Z,12.05
2022-09-11T11:30:19.506Z,11.88
2022-09-11T11:33:03.858Z,11.57
2022-09-11T11:35:44.757Z,9.98
2022-09-11T11:38:24.323Z,12.70
2022-09-11T11:41:07.755Z,11.10
2022-09-11T11:43:39.869Z,11.05
2022-09-11T11:46:17.845Z,10.27
2022-09-11T11:49:01.766Z,11.13
2022-09-11T11:51:33.982Z,10.70
2022-09-11T11:54:10.509Z,14.65
2022-09-11T11:56:50.084Z,10.80
2022-09-11T11:59:47.207Z,12.18
2022-09-11T12:02:30.614Z,11.93
2022-09-11T12:05:05.887Z,10.77
2022-09-11T12:07:34.698Z,10.25
2022-09-11T12:10:03.232Z,11.55
2022-09-11T12:12:35.728Z,10.60
2022-09-11T12:15:08.736Z,10.02
2022-09-11T12:17:40.160Z,11.13
2022-09-11T12:20:09.302Z,12.63
2022-09-11T12:22:39.001Z,10.25
2022-09-11T12:25:26.060Z,9.95
2022-09-11T12:28:14.306Z,9.07
2022-09-11T12:31:13.898Z,12.88
2022-09-11T12:33:47.178Z,9.77
2022-09-11T12:36:38.522Z,10.15
2022-09-11T12:39:17.853Z,8.75
2022-09-11T12:41:45.788Z,8.45
2022-09-11T12:44:29.889Z,8.00
2022-09-11T12:46:59.030Z,8.25
2022-09-11T12:49:27.198Z,9.48
2022-09-11T12:51:56.281Z,9.27
2022-09-11T12:54:28.828Z,9.00
2022-09-11T12:59:39.093Z,8.30
2022-09-11T13:02:28.319Z,8.23
2022-09-11T13:04:55.569Z,7.43
2022-09-11T13:07:41.602Z,8.18
2022-09-11T13:10:24.970Z,9.57
2022-09-11T13:12:54.160Z,7.50
2022-09-11T13:15:37.178Z,7.47
2022-09-11T13:18:35.752Z,7.55
2022-09-11T13:21:04.854Z,7.50
2022-09-11T13:23:31.497Z,7.53
2022-09-11T13:25:58.448Z,7.40
2022-09-11T13:28:27.535Z,7.60
2022-09-11T13:31:01.921Z,6.75
2022-09-11T13:33:31.003Z,7.15
2022-09-11T13:36:02.895Z,8.50
2022-09-11T13:38:37.201Z,8.75
2022-09-11T13:41:13.421Z,8.35
2022-09-11T13:43:47.638Z,8.23
2022-09-11T13:46:16.977Z,11.85
2022-09-11T13:48:44.797Z,8.23
2022-09-11T13:51:20.765Z,9.63
2022-09-11T13:54:10.129Z,8.43
2022-09-11T13:56:38.433Z,7.47
2022-09-11T13:59:42.929Z,8.95
2022-09-11T14:02:34.569Z,9.68
2022-09-11T14:05:05.442Z,8.05
2022-09-11T14:07:35.004Z,7.68
2022-09-11T14:10:07.534Z,7.22
2022-09-11T14:15:16.361Z,7.22
2022-09-11T14:17:42.849Z,6.68
2022-09-11T14:20:17.230Z,8.27
2022-09-11T14:22:44.177Z,7.05
2022-09-11T14:25:21.654Z,7.80
2022-09-11T14:27:48.439Z,7.78
2022-09-11T14:30:36.868Z,9.25
2022-09-11T14:33:15.306Z,8.52
2022-09-11T14:35:41.878Z,7.85
2022-09-11T14:38:11.506Z,8.07
2022-09-11T14:40:42.019Z,7.68
2022-09-11T14:43:09.964Z,9.20
2022-09-11T14:45:36.389Z,8.15
2022-09-11T14:48:03.329Z,7.95
2022-09-11T14:50:30.861Z,7.32
2022-09-11T14:52:57.292Z,7.03
2022-09-11T14:55:23.934Z,8.20
2022-09-11T14:57:50.297Z,7.75
2022-09-11T15:00:18.593Z,7.40
2022-09-11T15:02:45.086Z,7.25
2022-09-11T15:05:17.362Z,9.02
2022-09-11T15:07:46.432Z,6.70
2022-09-11T15:10:14.037Z,8.75
2022-09-11T15:12:40.501Z,7.22
2022-09-11T15:15:07.567Z,8.77
2022-09-11T15:17:36.235Z,8.10
2022-09-11T15:20:09.133Z,8.00
2022-09-11T15:22:36.405Z,7.00
2022-09-11T15:25:03.563Z,7.78
2022-09-11T15:27:29.988Z,7.47
2022-09-11T15:29:56.349Z,10.05
2022-09-11T15:32:23.044Z,8.77
2022-09-11T15:34:49.502Z,7.55
2022-09-11T15:37:18.529Z,9.10
2022-09-11T15:39:44.915Z,7.80
2022-09-11T15:42:12.526Z,8.75
2022-09-11T15:44:41.662Z,7.88
2022-09-11T15:47:08.825Z,9.02
2022-09-11T15:49:40.512Z,7.22
2022-09-11T15:52:07.433Z,8.83
2022-09-11T15:54:33.852Z,7.35
2022-09-11T15:57:00.534Z,7.43
2022-09-11T15:59:26.927Z,7.35
2022-09-11T16:01:53.410Z,7.10
2022-09-11T16:04:21.910Z,8.27
2022-09-11T16:06:50.381Z,8.15
2022-09-11T16:09:22.884Z,8.63
2022-09-11T16:11:50.297Z,8.00
2022-09-11T16:14:18.997Z,8.73
2022-09-11T16:16:48.295Z,7.35
2022-09-11T16:19:15.728Z,8.40
2022-09-11T16:21:42.101Z,7.15
2022-09-11T16:24:09.897Z,9.48
2022-09-11T16:26:38.232Z,7.45
2022-09-11T16:29:09.589Z,8.38
2022-09-11T16:31:36.071Z,7.20
2022-09-11T16:34:04.084Z,7.85
2022-09-11T16:36:33.590Z,7.38
2022-09-11T16:39:01.130Z,8.13
2022-09-11T16:41:27.453Z,6.63
2022-09-11T16:43:54.140Z,6.95
2022-09-11T16:46:23.205Z,9.55
2022-09-11T16:48:54.395Z,7.40
2022-09-11T16:51:23.400Z,7.72
2022-09-11T16:53:50.298Z,7.80
2022-09-11T16:56:19.983Z,8.55
2022-09-11T16:58:47.035Z,7.30
2022-09-11T17:01:20.027Z,7.80
2022-09-11T17:03:48.437Z,7.38
2022-09-11T17:06:16.726Z,8.25
2022-09-11T17:08:44.573Z,7.40
2022-09-11T17:11:14.369Z,10.48
2022-09-11T17:13:42.582Z,7.35
2022-09-11T17:16:16.527Z,7.20
2022-09-11T17:18:51.267Z,8.10
2022-09-11T17:21:17.755Z,8.85
2022-09-11T17:23:44.923Z,6.90
2022-09-11T17:26:14.029Z,8.65
2022-09-11T17:28:41.958Z,6.80
2022-09-11T17:31:10.651Z,8.15
2022-09-11T17:33:40.083Z,6.80
2022-09-11T17:36:08.553Z,8.20
2022-09-11T17:38:35.126Z,6.78
2022-09-11T17:41:04.812Z,7.05
2022-09-11T17:43:33.131Z,6.72
2022-09-11T17:46:04.877Z,6.35
2022-09-11T17:48:31.815Z,6.40
2022-09-11T17:51:09.130Z,7.03
2022-09-11T17:53:38.625Z,6.95
2022-09-11T17:56:09.698Z,7.47
2022-09-11T17:58:37.273Z,6.80
2022-09-11T18:01:05.233Z,7.00
2022-09-11T18:03:33.416Z,7.10
2022-09-11T18:06:01.495Z,6.65
2022-09-11T18:08:29.068Z,7.40
2022-09-11T18:10:59.903Z,7.13
2022-09-11T18:13:28.282Z,6.70
2022-09-11T18:15:56.164Z,7.53
2022-09-11T18:18:23.773Z,7.28
2022-09-11T18:20:53.831Z,7.20
2022-09-11T18:23:24.170Z,7.03
2022-09-11T18:25:51.474Z,7.10
2022-09-11T18:28:19.984Z,6.65
2022-09-11T18:30:47.433Z,7.25
2022-09-11T18:33:16.615Z,7.97
2022-09-11T18:35:44.179Z,6.95
2022-09-11T18:38:10.848Z,8.20
2022-09-11T18:40:37.246Z,6.72
2022-09-11T18:43:03.661Z,7.63
2022-09-11T18:45:30.667Z,6.53
2022-09-11T18:47:57.223Z,7.05
2022-09-11T18:50:24.663Z,8.18
2022-09-11T18:52:52.013Z,6.72
2022-09-11T18:55:22.734Z,8.70
2022-09-11T18:57:50.361Z,7.28
2022-09-11T19:00:17.870Z,7.40
2022-09-11T19:02:46.073Z,7.30
2022-09-11T19:05:15.392Z,9.27
2022-09-11T19:07:43.904Z,7.25
2022-09-11T19:10:11.601Z,8.45
2022-09-11T19:12:39.395Z,7.90
2022-09-11T19:15:07.594Z,8.15
2022-09-11T19:17:36.614Z,7.03
2022-09-11T19:20:06.011Z,6.63
2022-09-11T19:22:32.471Z,8.30
2022-09-11T19:24:59.835Z,7.30
2022-09-11T19:27:26.737Z,7.03
2022-09-11T19:29:53.557Z,6.93
2022-09-11T19:32:20.021Z,7.88
2022-09-11T19:34:47.409Z,7.20
2022-09-11T19:37:15.113Z,8.27
2022-09-11T19:39:41.770Z,7.10
2022-09-11T19:42:09.180Z,7.53
2022-09-11T19:44:35.878Z,6.70
2022-09-11T19:47:02.553Z,7.20
2022-09-11T19:49:29.849Z,9.63
2022-09-11T19:51:57.038Z,7.20
2022-09-11T19:54:23.758Z,6.47
2022-09-11T19:56:51.020Z,7.10
2022-09-11T19:59:17.425Z,8.75
2022-09-11T20:01:44.219Z,7.47
2022-09-11T20:04:12.379Z,8.30
2022-09-11T20:06:39.139Z,6.20
2022-09-11T20:11:52.572Z,6.35
2022-09-11T20:14:18.952Z,9.63
2022-09-11T20:16:45.483Z,7.30
2022-09-11T20:19:12.105Z,7.72
2022-09-11T20:21:38.596Z,7.00
2022-09-11T20:24:06.735Z,7.63
2022-09-11T20:26:34.027Z,6.10
2022-09-11T20:29:03.389Z,6.25
2022-09-11T20:31:32.772Z,7.25
2022-09-11T20:34:00.715Z,6.75
2022-09-11T20:36:29.790Z,7.45
2022-09-11T20:38:58.275Z,7.00
2022-09-11T20:41:28.877Z,6.97
2022-09-11T20:43:56.943Z,7.70
2022-09-11T20:46:23.958Z,7.72
2022-09-11T20:48:52.808Z,6.82
2022-09-11T20:51:20.814Z,7.45
2022-09-11T20:53:47.319Z,7.50
2022-09-11T20:56:16.473Z,8.65
2022-09-11T20:58:44.202Z,6.55
2022-09-11T21:01:15.903Z,7.75
2022-09-11T21:03:45.085Z,7.05
2022-09-11T21:06:11.661Z,8.77
2022-09-11T21:08:39.819Z,7.00
2022-09-11T21:11:07.764Z,7.75
2022-09-11T21:13:36.839Z,7.20
2022-09-11T21:16:08.774Z,6.50
2022-09-11T21:18:35.482Z,6.68
2022-09-11T21:21:02.298Z,6.78
2022-09-11T21:23:29.287Z,7.82
2022-09-11T21:25:55.777Z,6.82
2022-09-11T21:28:22.627Z,7.32
2022-09-11T21:30:49.465Z,6.43
2022-09-11T21:33:19.868Z,6.68
2022-09-11T21:36:06.004Z,6.82
2022-09-11T21:38:33.185Z,7.00
2022-09-11T21:41:02.036Z,7.43
2022-09-11T21:43:28.983Z,6.57
2022-09-11T21:45:55.777Z,7.38
2022-09-11T21:48:23.068Z,7.25
2022-09-11T21:50:49.764Z,6.82
2022-09-11T21:53:16.276Z,9.20
2022-09-11T21:55:44.922Z,6.80
2022-09-11T21:58:21.295Z,8.40
2022-09-11T22:00:49.052Z,7.32
2022-09-11T22:03:18.377Z,7.47
2022-09-11T22:05:47.607Z,7.05
2022-09-11T22:08:16.949Z,7.28
2022-09-11T22:10:45.117Z,8.07
2022-09-11T22:13:11.466Z,7.28
2022-09-11T22:15:42.163Z,6.80
2022-09-11T22:18:09.807Z,8.18
2022-09-11T22:20:37.617Z,6.60
2022-09-11T22:23:04.263Z,6.88
2022-09-11T22:25:30.647Z,8.30
2022-09-11T22:27:57.060Z,6.70
2022-09-11T22:30:23.752Z,8.07
2022-09-11T22:32:50.730Z,7.07
2022-09-11T22:35:17.433Z,8.82
2022-09-11T22:37:43.742Z,8.20
2022-09-11T22:40:10.956Z,10.77
2022-09-11T22:42:37.595Z,7.03
2022-09-11T22:45:04.588Z,7.15
2022-09-11T22:47:31.137Z,8.52
2022-09-11T22:49:57.719Z,7.00
2022-09-11T22:52:24.299Z,8.45
2022-09-11T22:54:51.029Z,7.90
2022-09-11T22:57:17.441Z,8.43
2022-09-11T22:59:44.223Z,7.93
2022-09-11T23:02:12.877Z,10.27
2022-09-11T23:04:39.535Z,7.68
2022-09-11T23:07:15.934Z,8.02
2022-09-11T23:09:43.945Z,9.07
2022-09-11T23:12:11.252Z,8.68
2022-09-11T23:14:37.702Z,7.18
2022-09-11T23:17:04.454Z,6.55
2022-09-11T23:19:31.940Z,6.65
2022-09-11T23:21:58.346Z,7.60
2022-09-11T23:24:25.149Z,6.80
2022-09-11T23:26:51.500Z,8.18
2022-09-11T23:29:17.971Z,8.32
2022-09-11T23:31:45.387Z,7.20
2022-09-11T23:34:15.323Z,9.15
2022-09-11T23:36:41.943Z,9.52
2022-09-11T23:39:08.436Z,9.20
2022-09-11T23:41:34.925Z,7.45
2022-09-11T23:44:03.491Z,7.40
2022-09-11T23:46:30.238Z,8.80
2022-09-11T23:48:56.722Z,10.10
2022-09-11T23:51:23.132Z,11.38
2022-09-11T23:53:51.688Z,6.43
2022-09-11T23:56:18.868Z,9.90
2022-09-11T23:58:45.679Z,7.28
